Time;durP1;ratioP1;P1;durP2;ratioP2;P2;SDS_P1;SDS_P2;PMS_P1;PMS_P2;Temp;Humidity;BMP_temperature;BMP_pressure;BME280_temperature;BME280_humidity;BME280_pressure;Samples;Min_cycle;Max_cycle;Signal;HPM_P1;HPM_P2
2024/02/08 00:01:11;;;;;;;2.45;1.73;;;22.90;43.90;;;;;;10367559;28;20050;-91
2024/02/08 00:06:13;;;;;;;3.45;1.98;;;22.50;44.80;;;;;;10371311;28;20084;-90
2024/02/08 00:11:16;;;;;;;2.45;1.80;;;22.70;44.20;;;;;;10370521;28;20104;-91
2024/02/08 00:16:21;;;;;;;2.33;1.80;;;22.90;43.90;;;;;;10374997;28;20069;-90
2024/02/08 00:21:22;;;;;;;6.30;1.58;;;23.10;43.50;;;;;;10378968;28;20075;-91
2024/02/08 00:26:25;;;;;;;2.65;1.88;;;23.10;43.40;;;;;;10381223;28;20042;-90
2024/02/08 00:31:27;;;;;;;2.30;1.80;;;22.80;43.90;;;;;;10372659;28;20073;-90
2024/02/08 00:36:29;;;;;;;2.90;1.65;;;22.40;44.80;;;;;;10375054;28;20136;-89
2024/02/08 00:41:32;;;;;;;2.20;1.40;;;22.70;44.50;;;;;;10366985;28;20125;-89
2024/02/08 00:46:34;;;;;;;3.50;1.70;;;22.80;44.00;;;;;;10377325;28;20497;-91
2024/02/08 00:51:36;;;;;;;3.42;1.65;;;23.10;43.40;;;;;;10380944;28;20069;-91
2024/02/08 00:56:41;;;;;;;2.35;1.63;;;23.10;43.20;;;;;;10382012;28;20046;-92
2024/02/08 01:01:43;;;;;;;1.92;1.58;;;22.90;43.70;;;;;;10375810;28;20053;-90
2024/02/08 01:06:45;;;;;;;1.95;1.42;;;23.10;43.40;;;;;;10377271;28;20092;-89
2024/02/08 01:11:48;;;;;;;1.73;1.27;;;23.00;43.30;;;;;;10364156;28;20132;-90
2024/02/08 01:16:51;;;;;;;2.28;1.60;;;23.10;43.10;;;;;;10377219;28;20104;-91
2024/02/08 01:21:52;;;;;;;2.92;1.60;;;23.10;43.10;;;;;;10374061;28;20049;-89
2024/02/08 01:26:57;;;;;;;2.13;1.50;;;23.00;43.20;;;;;;10372825;28;20070;-90
2024/02/08 01:32:00;;;;;;;1.80;1.52;;;22.90;43.50;;;;;;10381343;28;20049;-91
2024/02/08 01:37:03;;;;;;;1.85;1.50;;;23.10;43.20;;;;;;10382925;28;20045;-91
2024/02/08 01:42:11;;;;;;;1.58;1.40;;;23.10;43.10;;;;;;10374544;28;20061;-90
2024/02/08 01:47:13;;;;;;;2.00;1.40;;;23.30;42.80;;;;;;10381884;28;20077;-90
2024/02/08 01:52:18;;;;;;;2.40;1.40;;;23.10;42.80;;;;;;10392228;28;20069;-90
2024/02/08 01:57:21;;;;;;;2.13;1.30;;;23.10;42.90;;;;;;10378487;28;20042;-91
2024/02/08 02:02:22;;;;;;;2.35;1.38;;;22.70;43.50;;;;;;10371406;28;20128;-90
2024/02/08 02:07:25;;;;;;;2.20;1.40;;;22.80;43.50;;;;;;10379671;28;20066;-90
2024/02/08 02:12:30;;;;;;;2.47;1.48;;;23.00;43.10;;;;;;10375880;28;20131;-90
2024/02/08 02:17:31;;;;;;;2.55;1.58;;;23.20;42.60;;;;;;10388915;28;20046;-90
2024/02/08 02:22:35;;;;;;;1.63;1.30;;;23.10;42.70;;;;;;10388250;28;20513;-89
2024/02/08 02:27:39;;;;;;;1.42;1.30;;;23.00;43.00;;;;;;10381756;28;20045;-89
2024/02/08 02:32:41;;;;;;;1.83;1.20;;;22.80;43.20;;;;;;10380550;28;20559;-89
2024/02/08 02:37:45;;;;;;;2.30;1.10;;;22.90;43.30;;;;;;10372229;28;20146;-92
2024/02/08 02:42:47;;;;;;;1.83;1.38;;;23.10;42.90;;;;;;10376131;28;20053;-90
2024/02/08 02:47:53;;;;;;;1.55;1.00;;;23.10;42.60;;;;;;10385077;28;20045;-91
2024/02/08 02:52:57;;;;;;;1.60;1.27;;;23.20;42.50;;;;;;10365892;28;20077;-90
2024/02/08 02:57:59;;;;;;;2.33;1.45;;;23.10;42.70;;;;;;10382614;28;20141;-90
2024/02/08 03:03:07;;;;;;;1.45;1.25;;;22.90;42.90;;;;;;10381510;28;20444;-91
2024/02/08 03:08:10;;;;;;;2.03;1.25;;;22.90;42.90;;;;;;10376050;28;20133;-91
2024/02/08 03:13:12;;;;;;;2.17;1.40;;;23.20;42.50;;;;;;10379476;28;20053;-89
2024/02/08 03:18:15;;;;;;;1.40;1.00;;;23.20;42.40;;;;;;10376274;28;20042;-90
2024/02/08 03:23:18;;;;;;;1.30;1.10;;;23.10;42.60;;;;;;10368027;28;20419;-90
2024/02/08 03:28:23;;;;;;;2.42;1.30;;;22.90;42.90;;;;;;10368352;28;20108;-89
2024/02/08 03:33:25;;;;;;;1.50;1.30;;;23.00;42.90;;;;;;10372882;28;20046;-90
2024/02/08 03:38:28;;;;;;;1.35;1.10;;;23.10;42.40;;;;;;10367794;28;20512;-91
2024/02/08 03:43:32;;;;;;;2.30;1.33;;;23.20;42.30;;;;;;10372404;28;20489;-91
2024/02/08 03:48:35;;;;;;;1.48;1.23;;;23.10;42.40;;;;;;10375440;28;20038;-90
2024/02/08 03:53:38;;;;;;;1.65;1.30;;;22.70;43.10;;;;;;10389045;28;20519;-90
2024/02/08 03:58:40;;;;;;;1.30;1.20;;;22.40;44.00;;;;;;10380473;28;20054;-90
2024/02/08 04:03:53;;;;;;;1.48;1.02;;;22.30;44.30;;;;;;10379629;28;20045;-91
2024/02/08 04:09:16;;;;;;;1.50;1.00;;;22.50;44.30;;;;;;10381175;28;20144;-90
2024/02/08 04:57:07;;;;;;;1.10;0.95;;;22.80;44.40;;;;;;10388186;28;20045;-91
2024/02/08 05:02:09;;;;;;;1.23;0.80;;;22.80;44.30;;;;;;10390582;28;20056;-88
2024/02/08 05:07:11;;;;;;;1.70;1.10;;;22.80;44.50;;;;;;10363370;28;20161;-90
2024/02/08 05:12:14;;;;;;;2.53;1.40;;;22.70;42.40;;;;;;10371571;28;20050;-91
2024/02/08 05:17:17;;;;;;;6.20;1.40;;;22.60;41.40;;;;;;10375992;28;20073;-90
2024/02/08 05:22:19;;;;;;;2.15;1.20;;;22.50;41.50;;;;;;10373648;28;20057;-91
2024/02/08 05:27:22;;;;;;;2.55;1.33;;;22.70;41.80;;;;;;10371129;28;20103;-91
2024/02/08 05:32:33;;;;;;;2.63;1.00;;;23.00;41.80;;;;;;10372408;28;20050;-91
2024/02/08 05:37:37;;;;;;;3.33;1.30;;;23.00;41.80;;;;;;10365387;28;20049;-91
2024/02/08 05:42:44;;;;;;;1.90;1.10;;;23.00;41.70;;;;;;10366009;28;20613;-90
2024/02/08 05:47:45;;;;;;;2.97;1.23;;;22.80;42.10;;;;;;10376795;28;20037;-92
2024/02/08 05:52:53;;;;;;;1.92;1.08;;;22.80;42.30;;;;;;10372522;28;20053;-90
2024/02/08 05:57:58;;;;;;;1.55;0.90;;;22.80;42.40;;;;;;10375443;28;20042;-90
2024/02/08 06:03:09;;;;;;;6.78;1.40;;;22.90;42.40;;;;;;10389712;28;20034;-93
2024/02/08 06:08:25;;;;;;;3.47;1.80;;;23.00;40.70;;;;;;10359134;28;20042;-92
2024/02/08 06:13:29;;;;;;;5.55;2.10;;;23.20;41.20;;;;;;10367680;28;20048;-93
2024/02/08 06:18:45;;;;;;;11.00;1.92;;;23.10;41.20;;;;;;10382051;28;20046;-91
2024/02/08 06:24:45;;;;;;;9.52;2.30;;;23.20;40.90;;;;;;10375948;28;20060;-92
2024/02/08 06:30:18;;;;;;;5.97;2.42;;;22.90;41.00;;;;;;10325758;28;20046;-92
2024/02/08 06:35:25;;;;;;;8.13;2.00;;;22.60;40.70;;;;;;10373823;28;20042;-92
2024/02/08 06:40:39;;;;;;;9.77;2.28;;;22.60;40.60;;;;;;10383900;28;20563;-92
2024/02/08 06:45:53;;;;;;;8.32;2.10;;;22.50;40.40;;;;;;10369020;28;20112;-88
2024/02/08 07:39:34;;;;;;;5.75;2.00;;;23.00;41.40;;;;;;10451325;28;20500;-56
2024/02/08 07:44:39;;;;;;;5.70;2.03;;;22.80;41.00;;;;;;10451509;28;20086;-58
2024/02/08 07:49:43;;;;;;;5.38;2.05;;;22.60;40.80;;;;;;10450871;28;20053;-57
2024/02/08 07:54:50;;;;;;;9.18;1.85;;;22.70;41.00;;;;;;10451333;28;20148;-63
2024/02/08 07:59:53;;;;;;;4.45;1.70;;;22.70;41.60;;;;;;10451410;28;20064;-54
2024/02/08 08:04:54;;;;;;;6.32;1.75;;;22.60;42.90;;;;;;10451205;28;20095;-56
2024/02/08 08:10:07;;;;;;;6.38;2.08;;;22.60;43.20;;;;;;10451537;28;20114;-63
2024/02/08 08:15:18;;;;;;;8.98;1.88;;;22.70;44.20;;;;;;10451533;28;20102;-65
2024/02/08 08:31:35;;;;;;;14.50;4.07;;;22.50;46.90;;;;;;10408339;27;20394;-50
2024/02/08 08:36:36;;;;;;;15.73;4.50;;;22.60;47.50;;;;;;10352139;28;20130;-48
2024/02/08 08:41:45;;;;;;;17.55;5.28;;;22.70;47.40;;;;;;10369812;28;20070;-51
2024/02/08 08:46:51;;;;;;;24.05;4.03;;;22.80;47.00;;;;;;10393408;28;20041;-51
2024/02/08 08:51:58;;;;;;;15.73;3.47;;;22.80;46.60;;;;;;10389107;28;20054;-52
2024/02/08 08:57:00;;;;;;;25.17;3.75;;;22.70;46.80;;;;;;10387573;28;20431;-57
2024/02/08 09:02:03;;;;;;;11.63;3.47;;;22.60;46.30;;;;;;10395662;28;20046;-56
2024/02/08 09:07:10;;;;;;;15.57;3.47;;;22.40;46.70;;;;;;10390525;28;20138;-57
2024/02/08 09:12:12;;;;;;;11.32;3.13;;;22.70;45.80;;;;;;10393366;28;20050;-54
2024/02/08 09:17:25;;;;;;;14.05;3.20;;;23.00;45.30;;;;;;10388104;28;20052;-56
2024/02/08 09:22:31;;;;;;;10.48;2.58;;;23.00;45.70;;;;;;10389471;28;20048;-57
2024/02/08 09:27:34;;;;;;;9.30;2.90;;;23.20;45.80;;;;;;10389667;28;20042;-55
2024/02/08 09:32:46;;;;;;;12.00;3.00;;;23.30;45.90;;;;;;10388039;28;20050;-57
2024/02/08 09:37:47;;;;;;;11.18;3.10;;;23.30;46.10;;;;;;10392744;28;20124;-54
2024/02/08 09:42:55;;;;;;;14.43;3.17;;;23.10;46.30;;;;;;10365434;28;20559;-56
2024/02/08 09:48:00;;;;;;;10.07;3.20;;;22.50;47.80;;;;;;10363122;28;20570;-54
2024/02/08 09:53:07;;;;;;;15.02;3.45;;;22.40;47.80;;;;;;10359179;28;20053;-56
2024/02/08 09:58:10;;;;;;;9.52;2.72;;;23.00;46.80;;;;;;10354116;28;20389;-57
2024/02/08 10:03:31;;;;;;;10.48;2.30;;;23.20;46.40;;;;;;10357708;28;20101;-52
2024/02/08 10:08:38;;;;;;;9.40;3.05;;;23.20;46.20;;;;;;10320290;28;20074;-55
2024/02/08 10:13:53;;;;;;;9.90;2.58;;;23.00;46.70;;;;;;10356971;28;20046;-56
2024/02/08 10:19:02;;;;;;;11.38;2.72;;;22.90;47.00;;;;;;10327580;28;20527;-56
2024/02/08 10:24:25;;;;;;;9.20;2.50;;;22.50;48.30;;;;;;10360402;28;20096;-56
2024/02/08 10:29:31;;;;;;;9.00;2.33;;;22.80;47.60;;;;;;10355848;28;20073;-55
2024/02/08 10:34:39;;;;;;;8.48;2.08;;;23.10;46.80;;;;;;10351607;28;20050;-54
2024/02/08 10:39:57;;;;;;;10.02;2.17;;;23.20;46.70;;;;;;10354784;28;20061;-55
2024/02/08 10:45:05;;;;;;;12.02;2.00;;;23.10;46.90;;;;;;10359901;28;20128;-54
2024/02/08 10:50:19;;;;;;;7.10;2.40;;;22.90;47.00;;;;;;10356175;28;20133;-55
2024/02/08 10:55:30;;;;;;;7.68;2.17;;;22.50;47.90;;;;;;10356192;28;20100;-55
2024/02/08 11:06:00;;;;;;;5.57;1.90;;;22.90;47.20;;;;;;10346718;28;20224;-55
2024/02/08 11:11:03;;;;;;;;;;;23.10;46.50;;;;;;10351292;28;20054;-57
2024/02/08 11:16:19;;;;;;;5.90;1.90;;;23.00;46.50;;;;;;10343529;28;19987;-55
2024/02/08 11:21:28;;;;;;;3.70;1.50;;;23.00;46.60;;;;;;10353107;28;20471;-57
2024/02/08 11:26:34;;;;;;;5.97;1.80;;;22.70;47.30;;;;;;10356165;28;20116;-55
2024/02/08 11:31:41;;;;;;;6.13;1.90;;;22.90;46.80;;;;;;10354349;28;20048;-52
2024/02/08 11:36:52;;;;;;;3.22;1.50;;;23.10;46.40;;;;;;10355868;28;20046;-55
2024/02/08 11:41:57;;;;;;;3.42;1.50;;;23.10;46.20;;;;;;10364179;28;20045;-57
2024/02/08 11:47:17;;;;;;;2.72;1.40;;;23.10;46.30;;;;;;10343313;28;20049;-52
2024/02/08 11:52:23;;;;;;;2.80;1.42;;;23.00;46.30;;;;;;10351668;28;20046;-54
2024/02/08 11:57:36;;;;;;;2.92;1.48;;;22.80;46.90;;;;;;10352684;28;20050;-53
2024/02/08 12:02:38;;;;;;;5.05;1.70;;;22.90;46.60;;;;;;10353677;28;20092;-55
2024/02/08 12:07:45;;;;;;;2.30;1.23;;;23.00;46.30;;;;;;10357073;28;20042;-55
2024/02/08 12:12:52;;;;;;;4.82;1.40;;;23.10;46.20;;;;;;10350645;28;20056;-55
2024/02/08 12:18:05;;;;;;;4.47;1.30;;;23.00;46.10;;;;;;10353437;28;20042;-54
2024/02/08 12:23:08;;;;;;;3.25;1.30;;;23.10;46.00;;;;;;10345290;28;20041;-54
2024/02/08 12:28:09;;;;;;;2.33;1.40;;;22.80;46.50;;;;;;10347763;28;20045;-57
2024/02/08 12:33:11;;;;;;;9.05;1.33;;;22.60;47.30;;;;;;10357385;28;20129;-49
2024/02/08 12:38:16;;;;;;;1.95;1.10;;;22.80;45.70;;;;;;10357510;28;20451;-50
2024/02/08 12:43:19;;;;;;;2.22;1.30;;;23.00;45.20;;;;;;10356408;28;20097;-51
2024/02/08 12:48:21;;;;;;;3.97;1.33;;;23.10;45.20;;;;;;10355781;28;20061;-51
2024/02/08 12:53:24;;;;;;;3.42;1.45;;;23.20;45.20;;;;;;10355637;28;20050;-48
2024/02/08 12:58:26;;;;;;;3.05;1.13;;;23.30;45.60;;;;;;10310946;28;20526;-47
2024/02/08 13:03:27;;;;;;;3.47;1.20;;;23.20;45.90;;;;;;10347178;28;20058;-47
2024/02/08 13:08:33;;;;;;;3.05;1.30;;;23.10;46.20;;;;;;10353822;28;20048;-50
2024/02/08 13:13:34;;;;;;;4.60;1.30;;;23.30;45.70;;;;;;10353448;28;20073;-48
2024/02/08 13:18:38;;;;;;;5.75;1.55;;;23.40;45.60;;;;;;10358017;28;20484;-47
2024/02/08 13:23:42;;;;;;;3.63;0.90;;;23.50;45.60;;;;;;10362630;28;20066;-50
2024/02/08 13:28:44;;;;;;;4.10;1.38;;;23.50;45.50;;;;;;10355291;28;20061;-52
2024/02/08 13:33:45;;;;;;;5.95;1.20;;;23.30;45.80;;;;;;10361144;28;20050;-48
2024/02/08 13:38:51;;;;;;;4.90;1.42;;;23.30;46.40;;;;;;10360688;28;20096;-47
2024/02/08 13:43:53;;;;;;;7.47;0.88;;;23.40;45.20;;;;;;10356016;28;20310;-48
2024/02/08 13:48:54;;;;;;;4.63;1.27;;;23.50;44.80;;;;;;10358046;28;20137;-49
2024/02/08 13:53:57;;;;;;;7.22;1.17;;;23.60;44.80;;;;;;10357366;28;20361;-48
2024/02/08 13:59:00;;;;;;;4.50;1.25;;;23.80;44.50;;;;;;10360320;28;20835;-50
2024/02/08 14:04:05;;;;;;;4.85;1.00;;;23.70;44.50;;;;;;10362016;28;20132;-50
2024/02/08 14:09:20;;;;;;;4.97;1.20;;;23.70;44.70;;;;;;10357740;28;20049;-48
2024/02/08 14:14:29;;;;;;;4.55;1.10;;;23.30;45.60;;;;;;10361788;28;20061;-49
2024/02/08 14:19:36;;;;;;;5.68;1.30;;;23.30;45.80;;;;;;10355314;28;20050;-47
2024/02/08 14:24:39;;;;;;;4.28;1.30;;;23.50;44.90;;;;;;10352256;28;20054;-47
2024/02/08 14:29:41;;;;;;;5.85;1.30;;;23.50;44.60;;;;;;10352521;28;20048;-51
2024/02/08 14:34:43;;;;;;;14.27;1.10;;;23.50;44.60;;;;;;10353851;28;20053;-48
2024/02/08 14:39:46;;;;;;;2.90;1.20;;;23.30;45.00;;;;;;10360960;28;20047;-47
2024/02/08 14:44:53;;;;;;;4.72;1.10;;;22.90;46.10;;;;;;10359070;28;20081;-48
2024/02/08 14:49:55;;;;;;;3.00;1.13;;;23.40;45.10;;;;;;10356486;28;20050;-47
2024/02/08 14:55:09;;;;;;;5.55;1.25;;;23.40;44.70;;;;;;10352137;28;20045;-47
2024/02/08 15:05:47;;;;;;;3.85;1.23;;;23.20;45.70;;;;;;10346759;28;20117;-48
2024/02/08 15:10:59;;;;;;;2.05;0.90;;;22.70;46.20;;;;;;10353483;28;20073;-47
2024/02/08 15:16:07;;;;;;;3.75;0.98;;;23.10;45.60;;;;;;10355230;28;20516;-48
2024/02/08 15:21:09;;;;;;;3.83;0.90;;;23.40;44.60;;;;;;10361031;28;20046;-48
2024/02/08 15:26:12;;;;;;;1.55;0.90;;;23.40;44.50;;;;;;10353235;28;20077;-50
2024/02/08 15:31:39;;;;;;;1.25;0.80;;;23.30;44.60;;;;;;10357518;28;20057;-47
2024/02/08 15:36:47;;;;;;;1.45;0.70;;;22.90;45.80;;;;;;10344561;28;20053;-47
2024/02/08 15:41:55;;;;;;;1.70;0.65;;;22.80;46.00;;;;;;10343458;28;20073;-47
2024/02/08 15:46:57;;;;;;;2.25;0.60;;;23.30;44.90;;;;;;10344630;28;20397;-47
2024/02/08 15:51:59;;;;;;;1.65;0.73;;;23.40;44.50;;;;;;10356981;28;20046;-47
2024/02/08 15:57:07;;;;;;;3.53;0.85;;;23.40;44.40;;;;;;10355173;28;20052;-49
2024/02/08 16:02:13;;;;;;;1.42;0.77;;;23.10;44.80;;;;;;10361879;28;20046;-51
2024/02/08 16:07:15;;;;;;;0.77;0.60;;;22.80;45.80;;;;;;10352501;28;20049;-49
2024/02/08 16:12:23;;;;;;;1.60;0.70;;;22.90;45.60;;;;;;10351759;28;20519;-49
2024/02/08 16:17:39;;;;;;;1.75;0.80;;;23.30;44.50;;;;;;10341553;28;20060;-50
2024/02/08 16:22:47;;;;;;;2.33;0.80;;;23.30;44.50;;;;;;10345157;28;20058;-49
2024/02/08 16:27:56;;;;;;;1.45;0.75;;;23.30;44.30;;;;;;10358453;28;20061;-49
2024/02/08 16:33:08;;;;;;;6.93;0.90;;;22.90;45.30;;;;;;10356942;28;20122;-47
2024/02/08 16:38:10;;;;;;;3.38;0.73;;;22.90;45.70;;;;;;10356508;28;20034;-47
2024/02/08 16:43:13;;;;;;;5.53;1.23;;;23.20;45.60;;;;;;10357091;28;20074;-47
2024/02/08 16:48:21;;;;;;;4.45;0.90;;;23.30;47.40;;;;;;10347313;28;20440;-47
2024/02/08 16:53:26;;;;;;;8.60;1.13;;;23.40;46.80;;;;;;10351297;28;20050;-50
2024/02/08 16:58:32;;;;;;;5.75;1.20;;;23.40;46.90;;;;;;10358702;28;20061;-47
2024/02/08 17:04:00;;;;;;;8.55;1.20;;;23.20;47.50;;;;;;10360089;28;20054;-47
2024/02/08 17:09:15;;;;;;;7.03;1.00;;;23.30;48.20;;;;;;10364775;28;20050;-48
2024/02/08 17:14:32;;;;;;;3.25;0.88;;;23.50;47.60;;;;;;10361348;28;20607;-47
2024/02/08 17:19:57;;;;;;;2.15;0.90;;;23.60;47.40;;;;;;10364499;28;20068;-48
2024/02/08 17:25:19;;;;;;;14.15;1.30;;;23.60;47.30;;;;;;10356123;28;20050;-47
2024/02/08 17:30:25;;;;;;;3.17;0.90;;;23.30;47.70;;;;;;10355392;28;20514;-47
2024/02/08 17:35:34;;;;;;;4.65;0.95;;;23.20;47.90;;;;;;10356736;28;20046;-47
2024/02/08 17:40:37;;;;;;;4.70;0.85;;;23.30;47.20;;;;;;10356535;28;20054;-49
2024/02/08 17:45:54;;;;;;;3.17;0.95;;;23.50;46.40;;;;;;10359429;28;20138;-49
2024/02/08 17:50:58;;;;;;;2.35;1.00;;;23.50;46.10;;;;;;10364995;28;20099;-47
2024/02/08 17:56:06;;;;;;;1.33;0.80;;;23.50;46.20;;;;;;10353155;28;20412;-47
2024/02/08 18:01:15;;;;;;;2.92;0.80;;;23.40;46.70;;;;;;10357421;28;20087;-47
2024/02/08 18:06:18;;;;;;;3.03;0.80;;;23.40;46.70;;;;;;10356022;28;20041;-47
2024/02/08 18:11:20;;;;;;;2.17;1.08;;;23.50;46.10;;;;;;10353902;28;20046;-50
2024/02/08 18:16:25;;;;;;;1.50;0.90;;;23.60;46.00;;;;;;10355432;28;20129;-49
2024/02/08 18:21:27;;;;;;;3.03;0.70;;;23.60;45.70;;;;;;10353940;28;20129;-47
2024/02/08 18:26:31;;;;;;;1.65;0.80;;;23.50;45.90;;;;;;10362249;28;20076;-47
2024/02/08 18:31:34;;;;;;;1.60;0.98;;;23.50;46.40;;;;;;10353252;28;20045;-50
2024/02/08 18:36:44;;;;;;;1.10;0.70;;;23.30;46.70;;;;;;10356028;28;20042;-47
2024/02/08 18:41:50;;;;;;;2.33;0.53;;;23.50;46.10;;;;;;10356426;28;20046;-47
2024/02/08 18:46:54;;;;;;;1.27;0.77;;;23.50;46.00;;;;;;10352598;28;20568;-47
2024/02/08 18:51:57;;;;;;;2.00;0.90;;;23.50;45.90;;;;;;10352865;28;20050;-49
2024/02/08 18:57:03;;;;;;;0.73;0.70;;;23.50;45.90;;;;;;10355987;28;20051;-50
2024/02/08 19:02:08;;;;;;;2.15;0.77;;;23.30;46.70;;;;;;10352690;28;20049;-47
2024/02/08 19:07:11;;;;;;;1.85;0.80;;;23.20;46.80;;;;;;10362552;28;20050;-47
2024/02/08 19:12:14;;;;;;;1.23;0.80;;;23.50;46.00;;;;;;10348999;28;20068;-50
2024/02/08 19:17:19;;;;;;;0.82;0.60;;;23.40;46.00;;;;;;10354549;28;20046;-47
2024/02/08 19:22:22;;;;;;;2.17;0.68;;;23.40;45.90;;;;;;10350499;28;20053;-47
2024/02/08 19:27:26;;;;;;;1.27;0.60;;;23.30;45.90;;;;;;10350680;28;20076;-49
2024/02/08 19:32:31;;;;;;;1.67;0.70;;;23.30;45.80;;;;;;10350577;28;20049;-47
2024/02/08 19:37:33;;;;;;;0.98;0.80;;;23.30;45.60;;;;;;10355417;28;20099;-47
2024/02/08 19:42:35;;;;;;;0.93;0.70;;;23.40;45.40;;;;;;10353209;28;20070;-47
2024/02/08 19:47:38;;;;;;;1.60;0.70;;;23.30;45.50;;;;;;10352381;28;20064;-49
2024/02/08 19:52:44;;;;;;;1.27;0.60;;;23.30;45.40;;;;;;10348011;28;20137;-47
2024/02/08 19:57:47;;;;;;;0.82;0.60;;;23.20;45.40;;;;;;10350940;28;20080;-47
2024/02/08 20:02:52;;;;;;;9.18;1.00;;;23.10;45.50;;;;;;10350536;28;20050;-47
2024/02/08 20:07:55;;;;;;;6.68;0.70;;;23.20;45.80;;;;;;10344365;28;20050;-48
2024/02/08 20:12:58;;;;;;;3.38;0.98;;;23.00;46.10;;;;;;10351915;28;20411;-50
2024/02/08 20:18:01;;;;;;;1.55;0.80;;;22.90;46.30;;;;;;10357297;28;20078;-47
2024/02/08 20:23:10;;;;;;;1.73;0.68;;;22.90;46.40;;;;;;10356205;28;20049;-47
2024/02/08 20:28:12;;;;;;;3.83;0.82;;;23.00;46.20;;;;;;10348100;28;20080;-49
2024/02/08 20:33:16;;;;;;;4.97;0.70;;;22.90;46.20;;;;;;10351740;28;20096;-52
2024/02/08 20:38:18;;;;;;;3.08;0.80;;;23.00;46.10;;;;;;10349227;28;20054;-47
2024/02/08 20:43:22;;;;;;;5.60;0.70;;;22.90;46.00;;;;;;10346656;28;20046;-50
2024/02/08 20:48:25;;;;;;;3.38;0.93;;;22.90;46.00;;;;;;10348284;28;20072;-47
2024/02/08 20:53:27;;;;;;;7.40;1.05;;;22.90;46.10;;;;;;10348176;28;20100;-51
2024/02/08 20:58:28;;;;;;;4.35;0.85;;;22.80;46.60;;;;;;10347670;28;20481;-50
2024/02/08 21:03:32;;;;;;;5.05;1.00;;;22.80;47.20;;;;;;10354456;28;20049;-47
2024/02/08 21:08:38;;;;;;;3.50;1.17;;;22.90;47.40;;;;;;10346884;28;20074;-51
2024/02/08 21:13:39;;;;;;;8.00;1.20;;;22.90;47.50;;;;;;10349930;28;20066;-50
2024/02/08 21:18:45;;;;;;;5.47;1.00;;;23.00;47.50;;;;;;10344279;28;20134;-49
2024/02/08 21:23:46;;;;;;;9.15;1.08;;;23.10;47.50;;;;;;10346365;28;20105;-47
2024/02/08 21:28:50;;;;;;;9.05;1.30;;;23.30;47.40;;;;;;10354635;28;20050;-52
2024/02/08 21:33:56;;;;;;;17.30;1.73;;;23.30;47.30;;;;;;10356455;28;20061;-46
2024/02/08 21:38:58;;;;;;;11.50;1.08;;;23.30;47.40;;;;;;10362564;28;20499;-47
2024/02/08 21:44:00;;;;;;;8.80;1.30;;;23.30;47.30;;;;;;10354804;28;20050;-47
2024/02/08 21:49:03;;;;;;;11.75;1.52;;;23.40;47.20;;;;;;10355554;28;20412;-48
2024/02/08 21:54:05;;;;;;;12.18;1.40;;;23.50;47.10;;;;;;10358761;28;20077;-47
2024/02/08 21:59:07;;;;;;;7.00;1.00;;;23.50;46.50;;;;;;10350191;28;20046;-48
2024/02/08 22:04:10;;;;;;;10.27;1.30;;;23.40;47.70;;;;;;10359066;28;20042;-47
2024/02/08 22:09:11;;;;;;;6.05;1.10;;;23.40;47.30;;;;;;10355938;28;20056;-49
2024/02/08 22:14:14;;;;;;;7.95;1.15;;;23.60;45.10;;;;;;10363460;28;20044;-48
2024/02/08 22:19:20;;;;;;;2.20;0.68;;;23.60;44.60;;;;;;10360603;28;20508;-48
2024/02/08 22:24:22;;;;;;;2.97;0.80;;;23.70;44.30;;;;;;10354513;28;20038;-47
2024/02/08 22:29:24;;;;;;;5.03;0.90;;;23.70;44.20;;;;;;10352396;28;20038;-47
2024/02/08 22:34:27;;;;;;;2.55;0.70;;;23.70;44.30;;;;;;10357180;28;20396;-47
2024/02/08 22:39:29;;;;;;;4.57;0.93;;;23.50;44.60;;;;;;10362187;28;20478;-47
2024/02/08 22:44:30;;;;;;;4.68;1.05;;;23.20;45.70;;;;;;10363338;28;20137;-47
2024/02/08 22:49:36;;;;;;;10.98;1.05;;;22.90;45.10;;;;;;10358322;28;20042;-50
2024/02/08 22:54:38;;;;;;;4.50;0.70;;;22.60;44.60;;;;;;10357298;28;20058;-50
2024/02/08 22:59:39;;;;;;;4.72;0.70;;;22.50;45.20;;;;;;10352270;28;20042;-46
2024/02/08 23:04:42;;;;;;;6.72;0.80;;;22.40;45.30;;;;;;10356434;28;20481;-47
2024/02/08 23:09:44;;;;;;;4.05;0.90;;;22.30;45.30;;;;;;10354820;28;20140;-46
2024/02/08 23:14:47;;;;;;;4.40;0.98;;;22.20;45.30;;;;;;10359583;28;20056;-48
2024/02/08 23:19:51;;;;;;;4.57;0.80;;;22.10;45.60;;;;;;10362281;28;20381;-46
2024/02/08 23:24:52;;;;;;;3.67;0.77;;;21.90;45.40;;;;;;10364298;28;20623;-47
2024/02/08 23:29:54;;;;;;;2.15;0.68;;;21.80;45.60;;;;;;10354374;28;20430;-47
2024/02/08 23:34:57;;;;;;;1.70;0.60;;;21.70;45.90;;;;;;10352176;28;20046;-47
2024/02/08 23:40:01;;;;;;;1.88;0.70;;;21.50;46.10;;;;;;10350536;28;20038;-47
2024/02/08 23:45:02;;;;;;;3.25;0.82;;;21.60;46.20;;;;;;10359217;28;20049;-47
2024/02/08 23:50:08;;;;;;;1.98;0.90;;;21.70;45.90;;;;;;10356838;28;20411;-49
2024/02/08 23:55:13;;;;;;;3.25;0.65;;;21.80;45.70;;;;;;10355002;28;20133;-46
